ETH955 FKYS-FOOL
Flight info
| Callsign | ETH955 |
|---|---|
| Flight time | 0h 46m |
| Altitude | 32000 |
| Route | ERKUT1D ERKUT H455 ARASI ARASI2L |
| Aircraft | A35K/H-SDE2E3GHIJ3J4J5LM1ORWXY/LB1D1 |
Departure
| Time | 2026-04-26 14:14 |
|---|---|
| Airport | Yaoundé Nsimalen International Airport (FKYS) |
Arrival
| Time | 2026-04-26 15:00 |
|---|---|
| Airport | Libreville Leon M'ba International Airport (FOOL) |
| Time | Latitude | Longitude | Altitude | Speed | Heading |
|---|---|---|---|---|---|
| 2026-04-26 14:04 | 3.71321 | 11.54897 | 2268 ft | 0 kts | 309° |
| 2026-04-26 14:06 | 3.71324 | 11.54895 | 2268 ft | 1 kts | 319° |
| 2026-04-26 14:06 | 3.71329 | 11.54895 | 2268 ft | 1 kts | 343° |
| 2026-04-26 14:07 | 3.71336 | 11.54897 | 2268 ft | 1 kts | 14° |
| 2026-04-26 14:07 | 3.71340 | 11.54902 | 2268 ft | 1 kts | 44° |
| 2026-04-26 14:07 | 3.71339 | 11.54915 | 2267 ft | 2 kts | 98° |
| 2026-04-26 14:07 | 3.71331 | 11.54939 | 2267 ft | 5 kts | 108° |
| 2026-04-26 14:08 | 3.71322 | 11.54969 | 2267 ft | 4 kts | 107° |
| 2026-04-26 14:08 | 3.71311 | 11.55014 | 2266 ft | 8 kts | 101° |
| 2026-04-26 14:08 | 3.71306 | 11.55040 | 2265 ft | 2 kts | 101° |
| 2026-04-26 14:08 | 3.71305 | 11.55046 | 2265 ft | 0 kts | 100° |
| 2026-04-26 14:10 | 3.71304 | 11.55046 | 2265 ft | 1 kts | 100° |
| 2026-04-26 14:10 | 3.71294 | 11.55102 | 2262 ft | 0 kts | 101° |
| 2026-04-26 14:10 | 3.71292 | 11.55113 | 2262 ft | 7 kts | 103° |
| 2026-04-26 14:10 | 3.71245 | 11.55148 | 2262 ft | 10 kts | 165° |
| 2026-04-26 14:11 | 3.71037 | 11.55123 | 2261 ft | 19 kts | 189° |
| 2026-04-26 14:11 | 3.70902 | 11.55100 | 2261 ft | 1 kts | 190° |
| 2026-04-26 14:11 | 3.70868 | 11.55090 | 2261 ft | 8 kts | 203° |
| 2026-04-26 14:12 | 3.70818 | 11.55055 | 2260 ft | 10 kts | 212° |
| 2026-04-26 14:12 | 3.70796 | 11.55046 | 2260 ft | 0 kts | 190° |
| 2026-04-26 14:13 | 3.70786 | 11.55063 | 2260 ft | 1 kts | 86° |
| 2026-04-26 14:13 | 3.70803 | 11.55075 | 2260 ft | 5 kts | 28° |
| 2026-04-26 14:13 | 3.70909 | 11.55102 | 2261 ft | 36 kts | 11° |
| 2026-04-26 14:14 | 3.71126 | 11.55139 | 2261 ft | 79 kts | 9° |
| 2026-04-26 14:14 | 3.71900 | 11.55273 | 2261 ft | 145 kts | 9° |
| 2026-04-26 14:14 | 3.73057 | 11.55473 | 2520 ft | 177 kts | 8° |
| 2026-04-26 14:14 | 3.74254 | 11.55671 | 3442 ft | 171 kts | 7° |
| 2026-04-26 14:15 | 3.75480 | 11.55884 | 3887 ft | 189 kts | 6° |
| 2026-04-26 14:15 | 3.76848 | 11.56117 | 4200 ft | 210 kts | 7° |
| 2026-04-26 14:15 | 3.78350 | 11.56385 | 4549 ft | 229 kts | 8° |
| 2026-04-26 14:15 | 3.79984 | 11.56676 | 4939 ft | 245 kts | 9° |
| 2026-04-26 14:16 | 3.81734 | 11.56990 | 5248 ft | 266 kts | 9° |
| 2026-04-26 14:16 | 3.83596 | 11.57315 | 5785 ft | 275 kts | 9° |
| 2026-04-26 14:16 | 3.85496 | 11.57648 | 6469 ft | 279 kts | 10° |
| 2026-04-26 14:16 | 3.87422 | 11.57983 | 7203 ft | 282 kts | 11° |
| 2026-04-26 14:17 | 3.89338 | 11.58321 | 7851 ft | 284 kts | 12° |
| 2026-04-26 14:17 | 3.91289 | 11.58667 | 8508 ft | 287 kts | 12° |
| 2026-04-26 14:17 | 3.93269 | 11.59012 | 9166 ft | 290 kts | 12° |
| 2026-04-26 14:17 | 3.95267 | 11.59357 | 9863 ft | 292 kts | 12° |
| 2026-04-26 14:18 | 3.97322 | 11.59475 | 10337 ft | 304 kts | 358° |
| 2026-04-26 14:18 | 3.99423 | 11.58907 | 10573 ft | 325 kts | 336° |
| 2026-04-26 14:18 | 4.01254 | 11.57487 | 10839 ft | 346 kts | 312° |
| 2026-04-26 14:18 | 4.02450 | 11.55343 | 11135 ft | 363 kts | 288° |
| 2026-04-26 14:19 | 4.02834 | 11.52812 | 11497 ft | 372 kts | 274° |
| 2026-04-26 14:19 | 4.02926 | 11.50209 | 11942 ft | 377 kts | 272° |
| 2026-04-26 14:19 | 4.02994 | 11.47574 | 12426 ft | 380 kts | 272° |
| 2026-04-26 14:19 | 4.03081 | 11.44915 | 12913 ft | 385 kts | 272° |
| 2026-04-26 14:20 | 4.03182 | 11.42221 | 13475 ft | 387 kts | 273° |
| 2026-04-26 14:20 | 4.03288 | 11.39517 | 13948 ft | 391 kts | 272° |
| 2026-04-26 14:20 | 4.03171 | 11.36791 | 14403 ft | 393 kts | 263° |
| 2026-04-26 14:20 | 4.02562 | 11.34124 | 14867 ft | 394 kts | 251° |
| 2026-04-26 14:21 | 4.01423 | 11.31626 | 15294 ft | 396 kts | 239° |
| 2026-04-26 14:21 | 3.99790 | 11.29404 | 15743 ft | 397 kts | 227° |
| 2026-04-26 14:21 | 3.97736 | 11.27556 | 16154 ft | 398 kts | 214° |
| 2026-04-26 14:21 | 3.95342 | 11.26166 | 16621 ft | 398 kts | 202° |
| 2026-04-26 14:22 | 3.92722 | 11.25263 | 17033 ft | 399 kts | 193° |
| 2026-04-26 14:22 | 3.90016 | 11.24611 | 17405 ft | 402 kts | 191° |
| 2026-04-26 14:22 | 3.87316 | 11.24003 | 17835 ft | 404 kts | 191° |
| 2026-04-26 14:22 | 3.84562 | 11.23379 | 18276 ft | 406 kts | 191° |
| 2026-04-26 14:23 | 3.81802 | 11.22745 | 18610 ft | 408 kts | 191° |
| 2026-04-26 14:23 | 3.79019 | 11.22097 | 18922 ft | 412 kts | 191° |
| 2026-04-26 14:23 | 3.76225 | 11.21446 | 19299 ft | 413 kts | 192° |
| 2026-04-26 14:23 | 3.73425 | 11.20790 | 19688 ft | 414 kts | 191° |
| 2026-04-26 14:24 | 3.70610 | 11.20130 | 20028 ft | 417 kts | 192° |
| 2026-04-26 14:24 | 3.67774 | 11.19465 | 20366 ft | 419 kts | 192° |
| 2026-04-26 14:24 | 3.64932 | 11.18798 | 20715 ft | 420 kts | 192° |
| 2026-04-26 14:24 | 3.62122 | 11.18137 | 21055 ft | 422 kts | 192° |
| 2026-04-26 14:25 | 3.59246 | 11.17461 | 21369 ft | 425 kts | 192° |
| 2026-04-26 14:25 | 3.56357 | 11.16783 | 21755 ft | 427 kts | 192° |
| 2026-04-26 14:25 | 3.53453 | 11.16101 | 22139 ft | 429 kts | 192° |
| 2026-04-26 14:25 | 3.50539 | 11.15416 | 22455 ft | 431 kts | 192° |
| 2026-04-26 14:26 | 3.47612 | 11.14729 | 22751 ft | 433 kts | 192° |
| 2026-04-26 14:26 | 3.44670 | 11.14039 | 23066 ft | 435 kts | 192° |
| 2026-04-26 14:26 | 3.41717 | 11.13346 | 23364 ft | 437 kts | 192° |
| 2026-04-26 14:26 | 3.38748 | 11.12648 | 23630 ft | 439 kts | 192° |
| 2026-04-26 14:27 | 3.35765 | 11.11948 | 23886 ft | 441 kts | 192° |
| 2026-04-26 14:27 | 3.32771 | 11.11246 | 24122 ft | 442 kts | 192° |
| 2026-04-26 14:27 | 3.29813 | 11.10550 | 24376 ft | 443 kts | 192° |
| 2026-04-26 14:27 | 3.26802 | 11.09843 | 24611 ft | 445 kts | 192° |
| 2026-04-26 14:28 | 3.23781 | 11.09135 | 24864 ft | 446 kts | 192° |
| 2026-04-26 14:28 | 3.20754 | 11.08424 | 25128 ft | 448 kts | 192° |
| 2026-04-26 14:28 | 3.17713 | 11.07710 | 25351 ft | 449 kts | 192° |
| 2026-04-26 14:28 | 3.14667 | 11.06996 | 25590 ft | 451 kts | 192° |
| 2026-04-26 14:29 | 3.11606 | 11.06278 | 25834 ft | 452 kts | 192° |
| 2026-04-26 14:29 | 3.08533 | 11.05556 | 26086 ft | 454 kts | 192° |
| 2026-04-26 14:29 | 3.05451 | 11.04833 | 26326 ft | 455 kts | 192° |
| 2026-04-26 14:29 | 3.02360 | 11.04109 | 26582 ft | 457 kts | 192° |
| 2026-04-26 14:30 | 2.99260 | 11.03381 | 26841 ft | 458 kts | 192° |
| 2026-04-26 14:30 | 2.96150 | 11.02651 | 27088 ft | 460 kts | 192° |
| 2026-04-26 14:30 | 2.93034 | 11.01854 | 27345 ft | 463 kts | 196° |
| 2026-04-26 14:30 | 2.90046 | 11.00635 | 27604 ft | 467 kts | 206° |
| 2026-04-26 14:31 | 2.87227 | 10.99003 | 27858 ft | 469 kts | 210° |
| 2026-04-26 14:31 | 2.84507 | 10.97261 | 28113 ft | 471 kts | 212° |
| 2026-04-26 14:31 | 2.81746 | 10.95405 | 28380 ft | 473 kts | 213° |
| 2026-04-26 14:31 | 2.79061 | 10.93569 | 28629 ft | 475 kts | 213° |
| 2026-04-26 14:32 | 2.76327 | 10.91702 | 28907 ft | 476 kts | 213° |
| 2026-04-26 14:32 | 2.73579 | 10.89836 | 29169 ft | 478 kts | 212° |
| 2026-04-26 14:32 | 2.70814 | 10.87976 | 29391 ft | 480 kts | 212° |
| 2026-04-26 14:32 | 2.68025 | 10.86114 | 29657 ft | 482 kts | 212° |
| 2026-04-26 14:33 | 2.65231 | 10.84254 | 29923 ft | 484 kts | 212° |
| 2026-04-26 14:33 | 2.62418 | 10.82388 | 30172 ft | 486 kts | 212° |
| 2026-04-26 14:33 | 2.59594 | 10.80514 | 30399 ft | 489 kts | 212° |
| 2026-04-26 14:33 | 2.56747 | 10.78624 | 30673 ft | 492 kts | 212° |
| 2026-04-26 14:34 | 2.53890 | 10.76728 | 31048 ft | 494 kts | 212° |
| 2026-04-26 14:34 | 2.51018 | 10.74822 | 31364 ft | 496 kts | 212° |
| 2026-04-26 14:34 | 2.48134 | 10.72907 | 31606 ft | 499 kts | 212° |
| 2026-04-26 14:34 | 2.45239 | 10.70987 | 31839 ft | 501 kts | 212° |
| 2026-04-26 14:35 | 2.42341 | 10.69062 | 31957 ft | 496 kts | 212° |
| 2026-04-26 14:35 | 2.39519 | 10.67187 | 31971 ft | 478 kts | 212° |
| 2026-04-26 14:35 | 2.36779 | 10.65367 | 31974 ft | 470 kts | 212° |
| 2026-04-26 14:36 | 2.31342 | 10.61759 | 31977 ft | 468 kts | 212° |
| 2026-04-26 14:36 | 2.25916 | 10.58159 | 31976 ft | 468 kts | 212° |
| 2026-04-26 14:37 | 2.20490 | 10.54558 | 31970 ft | 468 kts | 212° |
| 2026-04-26 14:37 | 2.15062 | 10.50957 | 31967 ft | 468 kts | 212° |
| 2026-04-26 14:38 | 2.09626 | 10.47351 | 31963 ft | 468 kts | 212° |
| 2026-04-26 14:38 | 2.04197 | 10.43749 | 31961 ft | 468 kts | 212° |
| 2026-04-26 14:39 | 1.98770 | 10.40150 | 31963 ft | 468 kts | 212° |
| 2026-04-26 14:39 | 1.93370 | 10.36568 | 31957 ft | 468 kts | 212° |
| 2026-04-26 14:39 | 1.90651 | 10.34764 | 31834 ft | 474 kts | 212° |
| 2026-04-26 14:40 | 1.87869 | 10.32921 | 31635 ft | 482 kts | 212° |
| 2026-04-26 14:40 | 1.85084 | 10.31074 | 30936 ft | 482 kts | 212° |
| 2026-04-26 14:40 | 1.82267 | 10.29206 | 30001 ft | 488 kts | 212° |
| 2026-04-26 14:40 | 1.79435 | 10.27328 | 29177 ft | 488 kts | 212° |
| 2026-04-26 14:41 | 1.76715 | 10.25306 | 28458 ft | 486 kts | 217° |
| 2026-04-26 14:41 | 1.74099 | 10.23194 | 27807 ft | 482 kts | 218° |
| 2026-04-26 14:41 | 1.71498 | 10.21093 | 27147 ft | 479 kts | 218° |
| 2026-04-26 14:41 | 1.68908 | 10.19021 | 26500 ft | 475 kts | 217° |
| 2026-04-26 14:42 | 1.66329 | 10.16972 | 25872 ft | 472 kts | 217° |
| 2026-04-26 14:42 | 1.63757 | 10.14938 | 25230 ft | 469 kts | 217° |
| 2026-04-26 14:42 | 1.61199 | 10.12921 | 24576 ft | 467 kts | 217° |
| 2026-04-26 14:42 | 1.58657 | 10.10920 | 23943 ft | 464 kts | 217° |
| 2026-04-26 14:43 | 1.56127 | 10.08930 | 23252 ft | 462 kts | 217° |
| 2026-04-26 14:43 | 1.53608 | 10.06949 | 22557 ft | 458 kts | 217° |
| 2026-04-26 14:43 | 1.51118 | 10.04990 | 21888 ft | 453 kts | 218° |
| 2026-04-26 14:43 | 1.48653 | 10.03054 | 21243 ft | 449 kts | 218° |
| 2026-04-26 14:44 | 1.46214 | 10.01136 | 20588 ft | 445 kts | 218° |
| 2026-04-26 14:44 | 1.43788 | 9.99229 | 19931 ft | 441 kts | 218° |
| 2026-04-26 14:44 | 1.41387 | 9.97342 | 19268 ft | 438 kts | 218° |
| 2026-04-26 14:44 | 1.39030 | 9.95490 | 18608 ft | 435 kts | 218° |
| 2026-04-26 14:45 | 1.36659 | 9.93627 | 17893 ft | 432 kts | 219° |
| 2026-04-26 14:45 | 1.35067 | 9.92375 | 17431 ft | 430 kts | 219° |
| 2026-04-26 14:45 | 1.31975 | 9.89944 | 16535 ft | 425 kts | 218° |
| 2026-04-26 14:45 | 1.29663 | 9.88127 | 15869 ft | 421 kts | 218° |
| 2026-04-26 14:46 | 1.27374 | 9.86326 | 15215 ft | 416 kts | 218° |
| 2026-04-26 14:46 | 1.25108 | 9.84546 | 14563 ft | 413 kts | 218° |
| 2026-04-26 14:46 | 1.22856 | 9.82778 | 13909 ft | 409 kts | 219° |
| 2026-04-26 14:46 | 1.20631 | 9.81025 | 13171 ft | 405 kts | 219° |
| 2026-04-26 14:47 | 1.18434 | 9.79283 | 12491 ft | 400 kts | 219° |
| 2026-04-26 14:47 | 1.16272 | 9.77569 | 11854 ft | 394 kts | 219° |
| 2026-04-26 14:47 | 1.14149 | 9.75884 | 11453 ft | 382 kts | 219° |
| 2026-04-26 14:47 | 1.12120 | 9.74276 | 11305 ft | 363 kts | 219° |
| 2026-04-26 14:48 | 1.10188 | 9.72749 | 11196 ft | 345 kts | 219° |
| 2026-04-26 14:48 | 1.08354 | 9.71295 | 11070 ft | 329 kts | 219° |
| 2026-04-26 14:48 | 1.06601 | 9.69904 | 10947 ft | 314 kts | 219° |
| 2026-04-26 14:48 | 1.04910 | 9.68584 | 10707 ft | 306 kts | 219° |
| 2026-04-26 14:49 | 1.03227 | 9.67302 | 10378 ft | 304 kts | 218° |
| 2026-04-26 14:49 | 1.01542 | 9.66028 | 10086 ft | 303 kts | 218° |
| 2026-04-26 14:49 | 0.99863 | 9.64753 | 9790 ft | 303 kts | 219° |
| 2026-04-26 14:49 | 0.98193 | 9.63478 | 9436 ft | 299 kts | 218° |
| 2026-04-26 14:50 | 0.96546 | 9.62225 | 9147 ft | 297 kts | 219° |
| 2026-04-26 14:50 | 0.94908 | 9.60981 | 8853 ft | 295 kts | 219° |
| 2026-04-26 14:50 | 0.93279 | 9.59740 | 8565 ft | 293 kts | 219° |
| 2026-04-26 14:50 | 0.91660 | 9.58505 | 8267 ft | 292 kts | 219° |
| 2026-04-26 14:51 | 0.90055 | 9.57278 | 7991 ft | 290 kts | 219° |
| 2026-04-26 14:51 | 0.88460 | 9.56064 | 7705 ft | 287 kts | 219° |
| 2026-04-26 14:51 | 0.86873 | 9.54856 | 7424 ft | 286 kts | 219° |
| 2026-04-26 14:51 | 0.85298 | 9.53655 | 7137 ft | 284 kts | 219° |
| 2026-04-26 14:52 | 0.83728 | 9.52460 | 6852 ft | 283 kts | 219° |
| 2026-04-26 14:52 | 0.82169 | 9.51270 | 6557 ft | 281 kts | 219° |
| 2026-04-26 14:52 | 0.80616 | 9.50088 | 6290 ft | 280 kts | 219° |
| 2026-04-26 14:52 | 0.79074 | 9.48910 | 6000 ft | 278 kts | 219° |
| 2026-04-26 14:53 | 0.77559 | 9.47753 | 5742 ft | 277 kts | 219° |
| 2026-04-26 14:53 | 0.76032 | 9.46583 | 5447 ft | 275 kts | 219° |
| 2026-04-26 14:53 | 0.74515 | 9.45420 | 5185 ft | 275 kts | 219° |
| 2026-04-26 14:53 | 0.73005 | 9.44265 | 4971 ft | 268 kts | 219° |
| 2026-04-26 14:54 | 0.71549 | 9.43154 | 4754 ft | 259 kts | 219° |
| 2026-04-26 14:54 | 0.70136 | 9.42075 | 4474 ft | 252 kts | 219° |
| 2026-04-26 14:54 | 0.68887 | 9.40874 | 4214 ft | 249 kts | 234° |
| 2026-04-26 14:54 | 0.68024 | 9.39409 | 4035 ft | 239 kts | 244° |
| 2026-04-26 14:55 | 0.67302 | 9.37943 | 3790 ft | 233 kts | 245° |
| 2026-04-26 14:55 | 0.66605 | 9.36489 | 3502 ft | 231 kts | 245° |
| 2026-04-26 14:55 | 0.65913 | 9.35045 | 3198 ft | 229 kts | 245° |
| 2026-04-26 14:55 | 0.65031 | 9.33768 | 3048 ft | 219 kts | 224° |
| 2026-04-26 14:56 | 0.63721 | 9.33111 | 2924 ft | 208 kts | 190° |
| 2026-04-26 14:56 | 0.62334 | 9.33245 | 2839 ft | 197 kts | 162° |
| 2026-04-26 14:56 | 0.61080 | 9.33781 | 2737 ft | 195 kts | 155° |
| 2026-04-26 14:56 | 0.59866 | 9.34385 | 2619 ft | 195 kts | 154° |
| 2026-04-26 14:57 | 0.58673 | 9.34998 | 2443 ft | 195 kts | 153° |
| 2026-04-26 14:57 | 0.57490 | 9.35579 | 2275 ft | 184 kts | 154° |
| 2026-04-26 14:57 | 0.56379 | 9.36114 | 2044 ft | 170 kts | 155° |
| 2026-04-26 14:57 | 0.55350 | 9.36616 | 1830 ft | 159 kts | 154° |
| 2026-04-26 14:58 | 0.54382 | 9.37088 | 1629 ft | 150 kts | 154° |
| 2026-04-26 14:58 | 0.53466 | 9.37534 | 1404 ft | 143 kts | 154° |
| 2026-04-26 14:58 | 0.52586 | 9.37962 | 1244 ft | 140 kts | 154° |
| 2026-04-26 14:58 | 0.51719 | 9.38383 | 1047 ft | 138 kts | 154° |
| 2026-04-26 14:59 | 0.50855 | 9.38803 | 873 ft | 139 kts | 154° |
| 2026-04-26 14:59 | 0.50280 | 9.39089 | 764 ft | 139 kts | 154° |
| 2026-04-26 14:59 | 0.49422 | 9.39524 | 531 ft | 138 kts | 154° |
| 2026-04-26 14:59 | 0.48852 | 9.39797 | 398 ft | 136 kts | 154° |
| 2026-04-26 15:00 | 0.47700 | 9.40349 | 204 ft | 137 kts | 154° |
| 2026-04-26 15:00 | 0.46840 | 9.40762 | 39 ft | 134 kts | 155° |
| 2026-04-26 15:00 | 0.46126 | 9.41100 | 40 ft | 79 kts | 153° |
| 2026-04-26 15:00 | 0.45889 | 9.41212 | 39 ft | 12 kts | 171° |
| 2026-04-26 15:01 | 0.45829 | 9.41194 | 39 ft | 0 kts | 213° |
| 2026-04-26 15:01 | 0.45812 | 9.41181 | 40 ft | 0 kts | 215° |
| 2026-04-26 15:01 | 0.45773 | 9.41162 | 40 ft | 11 kts | 188° |
| 2026-04-26 15:01 | 0.45705 | 9.41181 | 40 ft | 6 kts | 157° |
| 2026-04-26 15:02 | 0.45660 | 9.41201 | 40 ft | 9 kts | 155° |
| 2026-04-26 15:02 | 0.45593 | 9.41233 | 40 ft | 9 kts | 154° |
| 2026-04-26 15:02 | 0.45541 | 9.41258 | 40 ft | 10 kts | 154° |
| 2026-04-26 15:02 | 0.45513 | 9.41272 | 40 ft | 5 kts | 157° |
| 2026-04-26 15:03 | 0.45471 | 9.41266 | 40 ft | 8 kts | 204° |
| 2026-04-26 15:03 | 0.45452 | 9.41255 | 41 ft | 0 kts | 213° |